createdAt,value
2023-02-20T00:00:07.611Z,1.56
2023-02-20T00:01:07.615Z,1.57
2023-02-20T00:02:07.785Z,1.56
2023-02-20T00:03:07.653Z,1.57
2023-02-20T00:04:07.684Z,1.54
2023-02-20T00:05:07.703Z,1.55
2023-02-20T00:06:07.743Z,1.57
2023-02-20T00:07:07.685Z,1.56
2023-02-20T00:08:07.719Z,1.55
2023-02-20T00:09:07.759Z,1.54
2023-02-20T00:10:07.780Z,1.54
2023-02-20T00:11:07.803Z,1.55
2023-02-20T00:12:07.774Z,1.54
2023-02-20T00:13:07.802Z,1.54
2023-02-20T00:14:07.838Z,1.54
2023-02-20T00:15:07.837Z,1.57
2023-02-20T00:16:07.919Z,1.53
2023-02-20T00:17:07.869Z,1.54
2023-02-20T00:18:07.865Z,1.54
2023-02-20T00:19:07.910Z,1.54
2023-02-20T00:20:07.938Z,1.53
2023-02-20T00:21:07.920Z,1.54
2023-02-20T00:22:07.946Z,1.54
2023-02-20T00:23:08.016Z,1.54
2023-02-20T00:24:08.017Z,1.55
2023-02-20T00:25:08.047Z,1.52
2023-02-20T00:26:08.048Z,1.51
2023-02-20T00:27:08.063Z,1.53
2023-02-20T00:28:08.100Z,1.54
2023-02-20T00:29:08.112Z,1.51
2023-02-20T00:30:08.422Z,1.51
2023-02-20T00:31:08.316Z,1.53
2023-02-20T00:32:08.386Z,1.52
2023-02-20T00:33:08.174Z,1.53
2023-02-20T00:34:08.218Z,1.52
2023-02-20T00:35:08.253Z,1.52
2023-02-20T00:36:08.267Z,1.53
2023-02-20T00:37:08.266Z,1.51
2023-02-20T00:38:08.249Z,1.52
2023-02-20T00:39:08.287Z,1.51
2023-02-20T00:40:08.303Z,1.50
2023-02-20T00:41:08.329Z,1.53
2023-02-20T00:42:08.317Z,1.51
2023-02-20T00:44:08.367Z,1.50
2023-02-20T00:45:08.406Z,1.51
2023-02-20T00:46:08.445Z,1.49
2023-02-20T00:47:08.414Z,1.50
2023-02-20T00:48:08.413Z,1.49
2023-02-20T00:49:08.464Z,1.50
2023-02-20T00:50:08.477Z,1.51
2023-02-20T00:51:08.495Z,1.50
2023-02-20T00:52:08.508Z,1.49
2023-02-20T00:53:08.517Z,1.51
2023-02-20T00:54:08.545Z,1.50
2023-02-20T00:55:08.568Z,1.48
2023-02-20T00:56:08.580Z,1.48
2023-02-20T00:57:08.605Z,1.49
2023-02-20T00:58:08.609Z,1.47
2023-02-20T00:59:08.611Z,1.47
2023-02-20T01:00:08.677Z,1.49
2023-02-20T01:01:08.652Z,1.48
2023-02-20T01:02:08.704Z,1.49
2023-02-20T01:03:08.712Z,1.47
2023-02-20T01:04:08.762Z,1.49
2023-02-20T01:06:08.822Z,1.49
2023-02-20T01:07:08.781Z,1.49
2023-02-20T01:08:08.840Z,1.48
2023-02-20T01:09:08.820Z,1.48
2023-02-20T01:10:08.863Z,1.48
2023-02-20T01:11:08.858Z,1.47
2023-02-20T01:14:08.894Z,1.49
2023-02-20T01:15:08.935Z,1.50
2023-02-20T01:16:08.937Z,1.48
2023-02-20T01:17:08.994Z,1.48
2023-02-20T01:18:08.989Z,1.48
2023-02-20T01:19:08.999Z,1.49
2023-02-20T01:20:09.020Z,1.49
2023-02-20T01:21:09.044Z,1.50
2023-02-20T01:22:09.072Z,1.51
2023-02-20T01:23:09.040Z,1.50
2023-02-20T01:24:09.062Z,1.49
2023-02-20T01:25:09.100Z,1.47
2023-02-20T01:26:09.113Z,1.48
2023-02-20T01:27:09.154Z,1.47
2023-02-20T01:28:09.187Z,1.50
2023-02-20T01:29:09.198Z,1.48
2023-02-20T01:30:09.290Z,1.49
2023-02-20T01:31:09.346Z,1.48
2023-02-20T01:32:09.222Z,1.50
2023-02-20T01:33:09.273Z,1.47
2023-02-20T01:34:09.282Z,1.49
2023-02-20T01:35:09.308Z,1.48
2023-02-20T01:36:09.276Z,1.47
2023-02-20T01:37:09.326Z,1.48
2023-02-20T01:38:09.346Z,1.49
2023-02-20T01:39:09.343Z,1.48
2023-02-20T01:40:09.364Z,1.49
2023-02-20T01:41:09.336Z,1.48
2023-02-20T01:42:09.364Z,1.48
2023-02-20T01:43:09.356Z,1.46
2023-02-20T01:44:09.379Z,1.48
2023-02-20T01:45:09.454Z,1.48
2023-02-20T01:46:09.635Z,1.49
2023-02-20T01:47:09.485Z,1.47
2023-02-20T01:48:09.470Z,1.46
2023-02-20T01:49:09.472Z,1.46
2023-02-20T01:50:09.527Z,1.48
2023-02-20T01:51:09.548Z,1.46
2023-02-20T01:52:09.564Z,1.46
2023-02-20T01:53:09.527Z,1.47
2023-02-20T01:54:09.570Z,1.47
2023-02-20T01:55:09.629Z,1.45
2023-02-20T01:56:09.931Z,1.45
2023-02-20T01:57:09.611Z,1.45
2023-02-20T01:58:09.658Z,1.45
2023-02-20T01:59:09.641Z,1.44
2023-02-20T02:00:09.647Z,1.43
2023-02-20T02:01:09.774Z,1.43
2023-02-20T02:02:09.758Z,1.45
2023-02-20T02:03:09.731Z,1.44
2023-02-20T02:04:09.730Z,1.46
2023-02-20T02:05:09.733Z,1.47
2023-02-20T02:06:09.908Z,1.47
2023-02-20T02:07:09.733Z,1.48
2023-02-20T02:08:09.742Z,1.46
2023-02-20T02:09:09.722Z,1.46
2023-02-20T02:10:09.740Z,1.46
2023-02-20T02:11:09.789Z,1.46
2023-02-20T02:12:09.760Z,1.45
2023-02-20T02:13:09.706Z,1.45
2023-02-20T02:14:09.728Z,1.44
2023-02-20T02:15:09.730Z,1.43
2023-02-20T02:16:10.049Z,1.43
2023-02-20T02:17:09.695Z,1.43
2023-02-20T02:18:09.716Z,1.43
2023-02-20T02:19:09.736Z,1.43
2023-02-20T02:20:09.734Z,1.42
2023-02-20T02:21:09.719Z,1.43
2023-02-20T02:22:09.773Z,1.42
2023-02-20T02:23:09.755Z,1.42
2023-02-20T02:24:09.778Z,1.42
2023-02-20T02:25:09.831Z,1.40
2023-02-20T02:26:09.960Z,1.42
2023-02-20T02:27:09.853Z,1.42
2023-02-20T02:28:09.856Z,1.42
2023-02-20T02:29:09.893Z,1.42
2023-02-20T02:30:09.976Z,1.40
2023-02-20T02:31:10.121Z,1.41
2023-02-20T02:32:10.061Z,1.41
2023-02-20T02:33:10.085Z,1.41
2023-02-20T02:34:10.172Z,1.40
2023-02-20T02:35:10.190Z,1.40
2023-02-20T02:36:10.453Z,1.41
2023-02-20T02:37:10.307Z,1.39
2023-02-20T02:38:10.352Z,1.41
2023-02-20T02:39:10.447Z,1.41
2023-02-20T02:40:10.493Z,1.42
2023-02-20T02:41:10.550Z,1.40
2023-02-20T02:42:10.622Z,1.40
2023-02-20T02:43:10.663Z,1.41
2023-02-20T02:44:10.735Z,1.37
2023-02-20T02:45:10.786Z,1.38
2023-02-20T02:46:11.184Z,1.38
2023-02-20T02:47:10.906Z,1.40
2023-02-20T02:48:10.984Z,1.38
2023-02-20T02:49:11.042Z,1.39
2023-02-20T02:50:11.102Z,1.39
2023-02-20T02:51:11.161Z,1.38
2023-02-20T02:52:11.179Z,1.37
2023-02-20T02:53:11.265Z,1.37
2023-02-20T02:54:11.356Z,1.38
2023-02-20T02:55:11.392Z,1.38
2023-02-20T02:56:11.652Z,1.36
2023-02-20T02:57:11.533Z,1.38
2023-02-20T02:58:11.543Z,1.36
2023-02-20T02:59:11.633Z,1.36
2023-02-20T03:00:11.702Z,1.37
2023-02-20T03:01:11.782Z,1.36
2023-02-20T03:02:11.850Z,1.34
2023-02-20T03:03:11.862Z,1.35
2023-02-20T03:04:11.861Z,1.33
2023-02-20T03:05:12.017Z,1.34
2023-02-20T03:06:12.401Z,1.35
2023-02-20T03:07:12.033Z,1.34
2023-02-20T03:08:12.089Z,1.33
2023-02-20T03:09:12.168Z,1.35
2023-02-20T03:10:12.202Z,1.34
2023-02-20T03:11:12.248Z,1.35
2023-02-20T03:12:12.301Z,1.32
2023-02-20T03:13:12.360Z,1.33
2023-02-20T03:14:12.430Z,1.34
2023-02-20T03:15:12.498Z,1.32
2023-02-20T03:16:12.915Z,1.32
2023-02-20T03:17:12.568Z,1.31
2023-02-20T03:18:12.615Z,1.37
2023-02-20T03:19:12.690Z,1.33
2023-02-20T03:20:12.719Z,1.34
2023-02-20T03:21:12.818Z,1.30
2023-02-20T03:22:12.805Z,1.33
2023-02-20T03:23:12.878Z,1.34
2023-02-20T03:24:12.926Z,1.35
2023-02-20T03:25:12.962Z,1.33
2023-02-20T03:26:13.303Z,1.34
2023-02-20T03:27:13.067Z,1.31
2023-02-20T03:28:13.108Z,1.33
2023-02-20T03:29:13.162Z,1.30
2023-02-20T03:30:13.222Z,1.30
2023-02-20T03:31:13.323Z,1.28
2023-02-20T03:32:13.383Z,1.32
2023-02-20T03:33:13.360Z,1.31
2023-02-20T03:34:13.427Z,1.33
2023-02-20T03:35:13.463Z,1.30
2023-02-20T03:36:13.895Z,1.31
2023-02-20T03:37:13.534Z,1.31
2023-02-20T03:38:13.576Z,1.32
2023-02-20T03:39:13.663Z,1.31
2023-02-20T03:40:13.678Z,1.31
2023-02-20T03:41:13.739Z,1.31
2023-02-20T03:42:13.867Z,1.28
2023-02-20T03:43:13.838Z,1.29
2023-02-20T03:44:13.885Z,1.28
2023-02-20T03:45:13.911Z,1.30
2023-02-20T03:46:14.286Z,1.30
2023-02-20T03:47:14.048Z,1.29
2023-02-20T03:48:14.049Z,1.30
2023-02-20T03:49:14.137Z,1.31
2023-02-20T03:50:14.166Z,1.29
2023-02-20T03:51:14.201Z,1.30
2023-02-20T03:52:14.261Z,1.32
2023-02-20T03:53:14.332Z,1.27
2023-02-20T03:54:14.353Z,1.31
2023-02-20T03:55:14.395Z,1.28
2023-02-20T03:56:14.710Z,1.29
2023-02-20T03:57:14.508Z,1.29
2023-02-20T03:58:14.556Z,1.30
2023-02-20T03:59:14.604Z,1.28
2023-02-20T04:00:14.680Z,1.26
2023-02-20T04:01:14.745Z,1.30
2023-02-20T04:02:14.763Z,1.30
2023-02-20T04:03:14.836Z,1.29
2023-02-20T04:04:14.860Z,1.26
2023-02-20T04:05:14.925Z,1.27
2023-02-20T04:06:15.250Z,1.29
2023-02-20T04:07:15.025Z,1.26
2023-02-20T04:08:15.127Z,1.27
2023-02-20T04:09:15.150Z,1.28
2023-02-20T04:10:15.213Z,1.30
2023-02-20T04:11:15.268Z,1.26
2023-02-20T04:12:15.308Z,1.26
2023-02-20T04:13:15.376Z,1.26
2023-02-20T04:14:15.416Z,1.28
2023-02-20T04:15:15.476Z,1.26
2023-02-20T04:16:15.804Z,1.26
2023-02-20T04:17:15.576Z,1.27
2023-02-20T04:18:15.610Z,1.28
2023-02-20T04:19:15.706Z,1.28
2023-02-20T04:20:15.738Z,1.27
2023-02-20T04:21:15.840Z,1.25
2023-02-20T04:22:15.844Z,1.26
2023-02-20T04:23:15.935Z,1.25
2023-02-20T04:24:15.985Z,1.27
2023-02-20T04:25:16.046Z,1.25
2023-02-20T04:26:16.078Z,1.26
2023-02-20T04:27:16.140Z,1.24
2023-02-20T04:28:16.151Z,1.24
2023-02-20T04:29:16.249Z,1.24
2023-02-20T04:30:16.342Z,1.26
2023-02-20T04:31:16.477Z,1.25
2023-02-20T04:32:16.393Z,1.24
2023-02-20T04:33:16.481Z,1.24
2023-02-20T04:34:16.514Z,1.24
2023-02-20T04:35:16.565Z,1.26
2023-02-20T04:36:16.636Z,1.25
2023-02-20T04:37:16.663Z,1.25
2023-02-20T04:38:16.735Z,1.25
2023-02-20T04:39:16.797Z,1.24
2023-02-20T04:40:16.860Z,1.24
2023-02-20T04:41:16.902Z,1.23
2023-02-20T04:42:16.975Z,1.25
2023-02-20T04:43:17.017Z,1.24
2023-02-20T04:44:17.066Z,1.21
2023-02-20T04:45:17.131Z,1.23
2023-02-20T04:46:17.222Z,1.19
2023-02-20T04:47:17.241Z,1.24
2023-02-20T04:48:17.300Z,1.23
2023-02-20T04:49:17.360Z,1.22
2023-02-20T04:50:17.412Z,1.23
2023-02-20T04:51:17.486Z,1.22
2023-02-20T04:52:17.535Z,1.21
2023-02-20T04:53:17.582Z,1.24
2023-02-20T04:54:17.651Z,1.23
2023-02-20T04:55:17.705Z,1.21
2023-02-20T04:56:17.797Z,1.21
2023-02-20T04:57:17.822Z,1.21
2023-02-20T04:58:17.890Z,1.22
2023-02-20T04:59:17.929Z,1.22
2023-02-20T05:00:17.992Z,1.22
2023-02-20T05:01:18.136Z,1.22
2023-02-20T05:02:18.131Z,1.20
2023-02-20T05:03:18.205Z,1.18
2023-02-20T05:04:18.238Z,1.20
2023-02-20T05:05:18.344Z,1.21
2023-02-20T05:06:18.355Z,1.21
2023-02-20T05:07:18.434Z,1.18
2023-02-20T05:08:18.466Z,1.19
2023-02-20T05:09:18.531Z,1.20
2023-02-20T05:10:18.573Z,1.18
2023-02-20T05:11:18.642Z,1.17
2023-02-20T05:12:18.691Z,1.19
2023-02-20T05:13:18.763Z,1.15
2023-02-20T05:14:18.789Z,1.17
2023-02-20T05:15:18.869Z,1.19
2023-02-20T05:16:18.939Z,1.17
2023-02-20T05:17:18.985Z,1.19
2023-02-20T05:18:19.020Z,1.18
2023-02-20T05:19:19.068Z,1.18
2023-02-20T05:20:19.114Z,1.19
2023-02-20T05:21:19.173Z,1.18
2023-02-20T05:22:19.262Z,1.16
2023-02-20T05:23:19.310Z,1.17
2023-02-20T05:24:19.361Z,1.17
2023-02-20T05:25:19.396Z,1.17
2023-02-20T05:26:19.465Z,1.17
2023-02-20T05:27:19.539Z,1.17
2023-02-20T05:28:19.570Z,1.17
2023-02-20T05:29:19.598Z,1.16
2023-02-20T05:30:19.687Z,1.17
2023-02-20T05:31:19.812Z,1.17
2023-02-20T05:32:19.825Z,1.16
2023-02-20T05:33:19.839Z,1.15
2023-02-20T05:34:19.884Z,1.16
2023-02-20T05:35:19.929Z,1.16
2023-02-20T05:36:19.988Z,1.15
2023-02-20T05:37:20.033Z,1.16
2023-02-20T05:38:20.120Z,1.18
2023-02-20T05:39:20.909Z,1.16
2023-02-20T05:40:20.226Z,1.16
2023-02-20T05:41:20.278Z,1.17
2023-02-20T05:42:20.319Z,1.17
2023-02-20T05:43:20.389Z,1.14
2023-02-20T05:44:20.422Z,1.17
2023-02-20T05:45:20.507Z,1.15
2023-02-20T05:46:20.619Z,1.17
2023-02-20T05:47:20.630Z,1.15
2023-02-20T05:48:20.660Z,1.15
2023-02-20T05:49:20.705Z,1.17
2023-02-20T05:50:20.744Z,1.14
2023-02-20T05:51:20.825Z,1.17
2023-02-20T05:52:20.868Z,1.17
2023-02-20T05:53:20.952Z,1.16
2023-02-20T05:54:20.985Z,1.15
2023-02-20T05:55:21.050Z,1.14
2023-02-20T05:56:21.117Z,1.17
2023-02-20T05:57:21.137Z,1.16
2023-02-20T05:58:21.205Z,1.15
2023-02-20T05:59:21.245Z,1.15
2023-02-20T06:01:40.395Z,0.50
2023-02-20T06:02:40.389Z,0.50
2023-02-20T06:03:40.493Z,0.50
2023-02-20T06:04:40.456Z,0.50
2023-02-20T06:05:40.401Z,0.50
2023-02-20T06:06:40.405Z,0.51
2023-02-20T06:07:40.358Z,0.51
2023-02-20T06:08:40.374Z,0.51
2023-02-20T06:09:40.358Z,0.51
2023-02-20T06:10:40.360Z,0.51
2023-02-20T06:11:40.353Z,0.51
2023-02-20T06:12:40.325Z,0.51
2023-02-20T06:13:40.326Z,0.51
2023-02-20T06:14:40.354Z,0.52
2023-02-20T06:15:40.344Z,0.51
2023-02-20T06:16:40.329Z,0.51
2023-02-20T06:17:40.349Z,0.52
2023-02-20T06:18:40.315Z,0.52
2023-02-20T06:19:40.291Z,0.52
2023-02-20T06:20:40.325Z,0.52
2023-02-20T06:21:40.292Z,0.53
2023-02-20T06:22:40.269Z,0.51
2023-02-20T06:23:40.244Z,0.51
2023-02-20T06:24:40.237Z,0.52
2023-02-20T06:25:40.272Z,0.51
2023-02-20T06:26:40.290Z,0.52
2023-02-20T06:27:40.275Z,0.56
2023-02-20T06:28:40.259Z,0.83
2023-02-20T06:29:40.257Z,1.13
2023-02-20T06:30:40.377Z,1.21
2023-02-20T06:31:40.696Z,1.19
2023-02-20T06:32:40.208Z,1.15
2023-02-20T06:33:40.215Z,1.04
2023-02-20T06:34:40.201Z,1.04
2023-02-20T06:35:40.266Z,1.02
2023-02-20T06:36:40.622Z,0.98
2023-02-20T06:37:41.187Z,0.90
2023-02-20T06:38:40.268Z,0.85
2023-02-20T06:39:41.049Z,0.81
2023-02-20T06:40:40.242Z,0.75
2023-02-20T06:41:40.603Z,0.71
2023-02-20T06:42:40.409Z,0.68
2023-02-20T06:43:40.495Z,0.71
2023-02-20T06:45:40.496Z,0.72
2023-02-20T06:46:40.798Z,0.74
2023-02-20T06:47:40.428Z,0.81
2023-02-20T06:48:40.430Z,0.98
2023-02-20T06:49:40.491Z,1.01
2023-02-20T06:50:40.486Z,1.02
2023-02-20T06:51:40.762Z,1.07
2023-02-20T06:52:40.466Z,1.15
2023-02-20T06:53:41.045Z,1.32
2023-02-20T06:54:40.461Z,1.26
2023-02-20T06:55:40.457Z,1.30
2023-02-20T06:56:40.568Z,1.33
2023-02-20T06:57:40.570Z,1.43
2023-02-20T06:58:40.577Z,1.59
2023-02-20T06:59:40.637Z,1.68
2023-02-20T07:00:40.644Z,1.74
2023-02-20T07:01:40.763Z,1.64
2023-02-20T07:03:40.694Z,1.59
2023-02-20T07:04:40.767Z,1.56
2023-02-20T07:05:40.741Z,1.60
2023-02-20T07:06:40.777Z,1.40
2023-02-20T07:07:40.796Z,1.40
2023-02-20T07:08:40.841Z,1.30
2023-02-20T07:09:42.016Z,1.34
2023-02-20T07:10:40.828Z,1.48
2023-02-20T07:11:40.817Z,1.31
2023-02-20T07:12:41.134Z,1.19
2023-02-20T07:13:40.821Z,1.18
2023-02-20T07:14:40.803Z,1.14
2023-02-20T07:15:40.827Z,1.10
2023-02-20T07:16:40.778Z,1.11
2023-02-20T07:17:42.164Z,1.12
2023-02-20T07:18:40.778Z,1.15
2023-02-20T07:19:40.766Z,1.20
2023-02-20T07:20:40.769Z,1.24
2023-02-20T07:21:40.750Z,1.29
2023-02-20T07:22:40.791Z,1.40
2023-02-20T07:23:40.766Z,1.39
2023-02-20T07:24:40.722Z,1.42
2023-02-20T07:25:40.743Z,1.38
2023-02-20T07:26:40.749Z,1.32
2023-02-20T07:27:40.783Z,1.37
2023-02-20T07:28:40.689Z,1.40
2023-02-20T07:29:40.693Z,1.44
2023-02-20T07:30:40.844Z,1.42
2023-02-20T07:31:40.779Z,1.34
2023-02-20T07:32:40.698Z,1.29
2023-02-20T07:33:40.654Z,1.35
2023-02-20T07:34:42.101Z,1.35
2023-02-20T07:35:40.662Z,1.34
2023-02-20T07:36:40.640Z,1.21
2023-02-20T07:37:41.146Z,1.20
2023-02-20T07:38:40.628Z,1.21
2023-02-20T07:39:40.642Z,1.13
2023-02-20T07:40:40.631Z,1.08
2023-02-20T07:41:40.612Z,1.06
2023-02-20T07:42:40.659Z,0.96
2023-02-20T07:43:40.621Z,0.96
2023-02-20T07:44:40.657Z,0.88
2023-02-20T07:45:40.629Z,0.90
2023-02-20T07:46:40.667Z,0.90
2023-02-20T07:47:40.643Z,0.90
2023-02-20T07:48:40.613Z,0.83
2023-02-20T07:49:40.579Z,0.82
2023-02-20T07:50:40.610Z,0.84
2023-02-20T07:51:40.540Z,0.85
2023-02-20T07:52:40.538Z,0.88
2023-02-20T07:53:40.564Z,0.84
2023-02-20T07:54:40.543Z,0.86
2023-02-20T07:55:40.601Z,0.94
2023-02-20T07:56:40.534Z,1.05
2023-02-20T07:57:40.519Z,0.92
2023-02-20T07:58:40.523Z,0.91
2023-02-20T07:59:40.523Z,0.87
2023-02-20T08:00:40.512Z,0.92
2023-02-20T08:01:40.557Z,0.93
2023-02-20T08:02:40.490Z,0.93
2023-02-20T08:03:40.485Z,0.92
2023-02-20T08:04:40.474Z,0.95
2023-02-20T08:05:49.124Z,0.97
2023-02-20T08:06:41.494Z,0.97
2023-02-20T08:07:40.479Z,0.97
2023-02-20T08:08:40.455Z,0.95
2023-02-20T08:09:40.441Z,0.92
2023-02-20T08:10:40.438Z,0.83
2023-02-20T08:11:40.400Z,0.89
2023-02-20T08:12:40.413Z,0.85
2023-02-20T08:13:40.432Z,0.84
2023-02-20T08:14:40.435Z,0.85
2023-02-20T08:15:40.430Z,0.84
2023-02-20T08:16:40.660Z,0.76
2023-02-20T08:17:46.394Z,0.72
2023-02-20T08:18:41.418Z,0.73
2023-02-20T08:19:40.391Z,0.70
2023-02-20T08:20:40.352Z,0.73
2023-02-20T08:21:41.083Z,0.70
2023-02-20T08:22:41.834Z,0.63
2023-02-20T08:23:40.399Z,0.58
2023-02-20T08:24:40.339Z,0.54
2023-02-20T08:25:40.357Z,0.51
2023-02-20T08:26:40.373Z,0.68
2023-02-20T08:27:40.337Z,0.51
2023-02-20T08:28:40.434Z,0.57
2023-02-20T08:29:40.456Z,0.59
2023-02-20T08:30:40.620Z,0.56
2023-02-20T08:31:40.710Z,0.56
2023-02-20T08:32:40.750Z,0.56
2023-02-20T08:33:41.169Z,0.54
2023-02-20T08:34:40.771Z,0.55
2023-02-20T08:35:40.846Z,0.59
2023-02-20T08:36:40.938Z,0.64
2023-02-20T08:37:40.956Z,0.65
2023-02-20T08:38:41.223Z,0.58
2023-02-20T08:39:41.068Z,0.59
2023-02-20T08:40:41.108Z,0.61
2023-02-20T08:41:41.225Z,0.57
2023-02-20T08:42:41.264Z,0.52
2023-02-20T08:43:41.711Z,0.55
2023-02-20T08:44:41.645Z,0.57
2023-02-20T08:45:41.520Z,0.57
2023-02-20T08:46:41.483Z,0.59
2023-02-20T08:56:42.110Z,0.69
2023-02-20T08:57:42.076Z,0.71
2023-02-20T08:58:42.183Z,0.71
2023-02-20T08:59:42.162Z,0.67
2023-02-20T09:00:42.193Z,0.75
2023-02-20T09:01:42.202Z,0.68
2023-02-20T09:02:42.259Z,0.69
2023-02-20T09:03:42.255Z,0.65
2023-02-20T09:04:42.380Z,0.57
2023-02-20T09:05:42.305Z,0.53
2023-02-20T09:06:42.342Z,0.50
2023-02-20T09:07:42.383Z,0.50
2023-02-20T09:08:42.428Z,0.51
2023-02-20T09:09:42.683Z,0.50
2023-02-20T09:10:42.480Z,0.51
2023-02-20T09:11:42.513Z,0.52
2023-02-20T09:12:42.613Z,0.50
2023-02-20T09:13:42.632Z,0.55
2023-02-20T09:14:42.671Z,0.68
2023-02-20T09:15:42.734Z,0.56
2023-02-20T09:16:42.780Z,0.72
2023-02-20T09:17:42.840Z,0.70
2023-02-20T09:18:42.866Z,0.64
2023-02-20T09:19:43.232Z,0.60
2023-02-20T09:20:42.986Z,0.67
2023-02-20T09:21:43.036Z,0.62
2023-02-20T09:22:43.073Z,0.62
2023-02-20T09:23:43.111Z,0.55
2023-02-20T09:24:43.193Z,0.60
2023-02-20T09:25:43.207Z,0.61
2023-02-20T09:26:43.252Z,0.56
2023-02-20T09:27:43.289Z,0.51
2023-02-20T09:28:43.352Z,0.49
2023-02-20T09:29:43.436Z,0.54
2023-02-20T09:30:43.446Z,0.81
2023-02-20T09:31:43.589Z,1.63
2023-02-20T09:32:43.539Z,1.77
2023-02-20T09:33:43.609Z,1.79
2023-02-20T09:34:43.662Z,1.66
2023-02-20T09:35:44.704Z,1.39
2023-02-20T09:36:43.784Z,1.27
2023-02-20T09:37:43.821Z,1.28
2023-02-20T09:38:43.904Z,1.17
2023-02-20T09:39:43.953Z,1.16
2023-02-20T09:40:44.021Z,1.27
2023-02-20T09:41:44.099Z,1.27
2023-02-20T09:42:44.364Z,1.15
2023-02-20T09:43:44.208Z,1.02
2023-02-20T09:44:44.694Z,0.92
2023-02-20T09:45:44.349Z,0.83
2023-02-20T09:46:44.384Z,1.41
2023-02-20T09:47:44.431Z,1.06
2023-02-20T09:48:44.465Z,0.93
2023-02-20T09:49:44.486Z,0.82
2023-02-20T09:50:44.500Z,0.81
2023-02-20T09:51:44.471Z,0.86
2023-02-20T09:52:44.507Z,0.81
2023-02-20T09:53:44.540Z,0.80
2023-02-20T09:54:45.403Z,0.78
2023-02-20T09:55:44.559Z,0.61
2023-02-20T09:56:44.646Z,0.50
2023-02-20T09:57:44.651Z,0.50
2023-02-20T09:58:44.696Z,0.50
2023-02-20T09:59:44.771Z,0.50
2023-02-20T10:00:44.791Z,0.50
2023-02-20T10:01:44.840Z,0.50
2023-02-20T10:02:45.012Z,0.54
2023-02-20T10:03:44.904Z,0.70
2023-02-20T10:04:59.929Z,0.79
2023-02-20T10:05:45.895Z,0.79
2023-02-20T10:06:44.871Z,0.80
2023-02-20T10:07:44.891Z,0.68
2023-02-20T10:08:44.872Z,0.52
2023-02-20T10:09:44.869Z,0.47
2023-02-20T10:10:44.857Z,0.52
2023-02-20T10:11:44.871Z,0.50
2023-02-20T10:12:44.844Z,0.49
2023-02-20T10:13:44.843Z,0.50
2023-02-20T10:14:44.892Z,0.51
2023-02-20T10:15:44.832Z,0.48
2023-02-20T10:16:44.904Z,0.50
2023-02-20T10:17:44.821Z,0.53
2023-02-20T10:18:44.801Z,0.56
2023-02-20T10:19:44.835Z,0.54
2023-02-20T10:20:44.836Z,0.50
2023-02-20T10:21:44.869Z,0.62
2023-02-20T10:22:44.830Z,0.67
2023-02-20T10:23:47.284Z,0.54
2023-02-20T10:24:44.849Z,0.55
2023-02-20T10:25:44.803Z,0.55
2023-02-20T10:26:44.824Z,0.57
2023-02-20T10:27:44.815Z,0.57
2023-02-20T10:28:44.856Z,0.55
2023-02-20T10:29:44.843Z,0.57
2023-02-20T10:30:44.806Z,0.53
2023-02-20T10:31:44.819Z,0.62
2023-02-20T10:32:44.760Z,0.63
2023-02-20T10:33:44.719Z,0.64
2023-02-20T10:34:44.742Z,0.72
2023-02-20T10:35:44.743Z,0.84
2023-02-20T10:36:44.721Z,0.96
2023-02-20T10:37:47.843Z,1.01
2023-02-20T10:38:44.689Z,1.02
2023-02-20T10:39:44.702Z,1.06
2023-02-20T10:40:44.698Z,1.17
2023-02-20T10:41:44.715Z,1.32
2023-02-20T10:42:44.666Z,1.51
2023-02-20T10:43:44.734Z,1.63
2023-02-20T10:44:51.781Z,1.75
2023-02-20T10:45:45.717Z,1.75
2023-02-20T10:46:49.399Z,1.80
2023-02-20T10:47:45.645Z,1.76
2023-02-20T10:48:44.626Z,1.81
2023-02-20T10:49:44.676Z,1.90
2023-02-20T10:50:44.723Z,2.08
2023-02-20T10:51:44.638Z,2.34
2023-02-20T10:52:44.663Z,2.70
2023-02-20T10:53:44.635Z,2.92
2023-02-20T10:54:45.290Z,3.18
2023-02-20T10:55:44.726Z,3.19
2023-02-20T10:56:44.689Z,3.18
2023-02-20T10:57:44.672Z,3.26
2023-02-20T10:58:45.688Z,3.24
2023-02-20T10:59:44.652Z,3.07
2023-02-20T11:00:44.812Z,3.02
2023-02-20T11:01:44.726Z,3.07
2023-02-20T11:02:44.629Z,2.98
2023-02-20T11:03:44.660Z,3.08
2023-02-20T11:04:44.643Z,3.21
2023-02-20T11:05:44.624Z,3.26
2023-02-20T11:06:45.654Z,3.23
2023-02-20T11:07:45.295Z,3.42
2023-02-20T11:08:44.628Z,3.82
2023-02-20T11:09:44.590Z,3.86
2023-02-20T11:10:44.753Z,4.01
2023-02-20T11:11:44.563Z,3.97
2023-02-20T11:12:44.529Z,4.07
2023-02-20T11:13:44.540Z,4.29
2023-02-20T11:14:44.539Z,4.10
2023-02-20T11:15:44.605Z,4.17
2023-02-20T11:16:44.503Z,4.23
2023-02-20T11:17:44.512Z,4.10
2023-02-20T11:18:44.492Z,4.11
2023-02-20T11:19:44.571Z,4.38
2023-02-20T11:20:44.554Z,4.52
2023-02-20T11:21:44.475Z,4.60
2023-02-20T11:22:44.455Z,4.72
2023-02-20T11:23:44.392Z,4.67
2023-02-20T11:24:44.411Z,4.88
2023-02-20T11:25:44.384Z,4.96
2023-02-20T11:26:45.244Z,4.91
2023-02-20T11:27:44.457Z,4.95
2023-02-20T11:28:44.409Z,5.01
2023-02-20T11:29:44.465Z,5.23
2023-02-20T11:30:44.587Z,5.37
2023-02-20T11:31:44.652Z,5.26
2023-02-20T11:32:44.577Z,5.46
2023-02-20T11:33:44.606Z,5.53
2023-02-20T11:34:44.676Z,5.75
2023-02-20T11:35:44.731Z,6.29
2023-02-20T11:36:45.234Z,6.22
2023-02-20T11:37:54.387Z,5.75
2023-02-20T11:38:45.828Z,4.97
2023-02-20T11:39:44.835Z,4.66
2023-02-20T11:40:44.821Z,5.54
2023-02-20T11:41:45.235Z,5.02
2023-02-20T11:42:44.899Z,5.12
2023-02-20T11:43:59.227Z,5.26
2023-02-20T11:44:45.835Z,4.42
2023-02-20T11:45:44.808Z,4.05
2023-02-20T11:46:45.239Z,3.58
2023-02-20T11:47:44.767Z,3.24
2023-02-20T11:48:44.776Z,3.69
2023-02-20T11:49:44.731Z,3.04
2023-02-20T11:50:44.745Z,3.07
2023-02-20T11:51:45.243Z,2.75
2023-02-20T11:52:44.714Z,2.65
2023-02-20T11:53:44.737Z,2.69
2023-02-20T11:54:44.699Z,2.93
2023-02-20T11:55:54.940Z,2.97
2023-02-20T11:56:45.758Z,2.98
2023-02-20T11:57:44.684Z,3.04
2023-02-20T11:58:44.717Z,3.15
2023-02-20T11:59:44.660Z,3.30
2023-02-20T12:00:44.672Z,3.43
2023-02-20T12:01:52.419Z,3.46
2023-02-20T12:02:45.750Z,3.47
2023-02-20T12:03:44.659Z,3.38
2023-02-20T12:04:44.664Z,2.83
2023-02-20T12:05:44.640Z,2.33
2023-02-20T12:06:44.632Z,2.32
2023-02-20T12:07:44.648Z,2.30
2023-02-20T12:08:44.618Z,2.19
2023-02-20T12:09:44.585Z,2.06
2023-02-20T12:10:44.595Z,2.09
2023-02-20T12:11:44.573Z,1.86
2023-02-20T12:12:44.579Z,1.84
2023-02-20T12:13:44.579Z,1.62
2023-02-20T12:14:44.545Z,1.39
2023-02-20T12:15:44.572Z,1.38
2023-02-20T12:16:45.259Z,1.14
2023-02-20T12:17:44.545Z,1.38
2023-02-20T12:18:44.511Z,1.49
2023-02-20T12:19:44.518Z,1.37
2023-02-20T12:20:44.530Z,1.14
2023-02-20T12:21:44.578Z,1.20
2023-02-20T12:22:44.760Z,1.22
2023-02-20T12:23:44.513Z,1.14
2023-02-20T12:24:44.531Z,0.93
2023-02-20T12:25:44.532Z,1.05
2023-02-20T12:26:44.583Z,1.25
2023-02-20T12:27:44.564Z,1.48
2023-02-20T12:28:44.528Z,2.15
2023-02-20T12:29:44.538Z,3.80
2023-02-20T12:30:44.526Z,5.32
2023-02-20T12:31:44.972Z,5.58
2023-02-20T12:32:44.755Z,4.97
2023-02-20T12:33:44.572Z,5.07
2023-02-20T12:34:44.552Z,5.90
2023-02-20T12:35:44.597Z,6.51
2023-02-20T12:36:44.617Z,7.19
2023-02-20T12:37:44.748Z,6.69
2023-02-20T12:38:44.634Z,6.68
2023-02-20T12:39:44.635Z,6.57
2023-02-20T12:40:44.646Z,5.85
2023-02-20T12:41:44.659Z,5.87
2023-02-20T12:42:44.643Z,5.76
2023-02-20T12:43:44.678Z,5.71
2023-02-20T12:44:44.685Z,5.60
2023-02-20T12:45:44.716Z,5.49
2023-02-20T12:46:44.794Z,5.42
2023-02-20T12:47:44.753Z,5.32
2023-02-20T12:48:44.807Z,5.17
2023-02-20T12:49:44.758Z,5.14
2023-02-20T12:50:44.814Z,4.99
2023-02-20T12:51:44.836Z,4.99
2023-02-20T12:52:44.889Z,4.73
2023-02-20T12:53:44.862Z,4.71
2023-02-20T12:54:44.894Z,4.54
2023-02-20T12:55:44.917Z,4.40
2023-02-20T12:56:44.927Z,4.40
2023-02-20T12:57:44.949Z,4.36
2023-02-20T12:58:44.998Z,4.37
2023-02-20T12:59:45.024Z,4.44
2023-02-20T13:00:45.089Z,4.41
2023-02-20T13:01:45.194Z,4.36
2023-02-20T13:02:45.060Z,4.21
2023-02-20T13:03:45.126Z,4.26
2023-02-20T13:04:45.140Z,4.06
2023-02-20T13:05:45.185Z,3.98
2023-02-20T13:06:45.188Z,4.02
2023-02-20T13:07:45.250Z,3.96
2023-02-20T13:08:45.240Z,3.86
2023-02-20T13:09:45.340Z,3.75
2023-02-20T13:10:45.316Z,3.70
2023-02-20T13:11:45.367Z,3.64
2023-02-20T13:12:45.391Z,3.53
2023-02-20T13:13:45.421Z,3.53
2023-02-20T13:14:45.473Z,3.43
2023-02-20T13:15:45.496Z,3.35
2023-02-20T13:16:45.543Z,3.34
2023-02-20T13:17:45.545Z,3.30
2023-02-20T13:18:45.563Z,3.21
2023-02-20T13:19:45.600Z,3.10
2023-02-20T13:22:45.684Z,3.16
2023-02-20T13:23:45.761Z,3.08
2023-02-20T13:24:45.783Z,3.01
2023-02-20T13:25:45.815Z,2.88
2023-02-20T13:26:45.846Z,2.80
2023-02-20T13:27:45.877Z,2.87
2023-02-20T13:28:45.928Z,2.87
2023-02-20T13:29:45.966Z,2.72
2023-02-20T13:30:45.966Z,2.69
2023-02-20T13:31:46.117Z,2.72
2023-02-20T13:32:46.045Z,2.72
2023-02-20T13:33:46.067Z,2.72
2023-02-20T13:34:46.104Z,2.59
2023-02-20T13:35:46.141Z,2.56
2023-02-20T13:36:46.189Z,2.53